Time;durP1;ratioP1;P1;durP2;ratioP2;P2;SDS_P1;SDS_P2;PMS_P1;PMS_P2;Temp;Humidity;BMP_temperature;BMP_pressure;BME280_temperature;BME280_humidity;BME280_pressure;Samples;Min_cycle;Max_cycle;Signal;HPM_P1;HPM_P2
2023/09/09 00:01:23;;;;;;;21.60;18.10;;;;;;;15.12;81.37;99248.91;226119;1276;25326;-75
2023/09/09 00:06:25;;;;;;;21.60;18.60;;;;;;;15.05;81.56;99248.58;226059;1276;22540;-75
2023/09/09 00:11:27;;;;;;;22.10;19.20;;;;;;;14.97;81.62;99245.92;225919;1279;22541;-75
2023/09/09 00:16:34;;;;;;;21.90;18.10;;;;;;;14.90;82.01;99242.69;226045;1276;22587;-76
2023/09/09 00:21:37;;;;;;;23.10;18.70;;;;;;;14.81;81.71;99245.75;226036;1273;22540;-75
2023/09/09 00:26:39;;;;;;;25.90;19.70;;;;;;;14.74;81.82;99250.56;226007;1274;22571;-74
2023/09/09 00:31:40;;;;;;;24.90;20.20;;;;;;;14.69;82.36;99244.47;226044;1279;22547;-75
2023/09/09 00:36:42;;;;;;;22.40;19.20;;;;;;;14.64;82.39;99243.32;226026;1273;25468;-75
2023/09/09 00:41:44;;;;;;;23.40;19.50;;;;;;;14.59;82.58;99239.05;226060;1280;22540;-74
2023/09/09 00:46:46;;;;;;;25.10;20.80;;;;;;;14.53;82.72;99246.58;226026;1260;22538;-73
2023/09/09 00:51:48;;;;;;;23.10;18.70;;;;;;;14.48;82.88;99243.09;225806;1279;22688;-74
2023/09/09 00:56:51;;;;;;;22.40;20.00;;;;;;;14.45;83.10;99245.08;226007;1277;22702;-75
2023/09/09 01:01:53;;;;;;;26.50;20.00;;;;;;;14.41;83.33;99247.67;225906;1277;22542;-74
2023/09/09 01:07:00;;;;;;;24.40;19.90;;;;;;;14.39;83.43;99240.41;225965;1280;22543;-74
2023/09/09 01:12:03;;;;;;;23.80;20.20;;;;;;;14.34;83.27;99239.63;226031;1275;22540;-74
2023/09/09 01:17:06;;;;;;;24.70;19.70;;;;;;;14.27;83.36;99237.89;225974;1276;22644;-75
2023/09/09 01:22:14;;;;;;;25.50;20.70;;;;;;;14.21;83.48;99234.20;225877;1278;22534;-75
2023/09/09 01:27:16;;;;;;;24.50;20.10;;;;;;;14.19;83.72;99235.21;225728;1275;22541;-74
2023/09/09 01:32:18;;;;;;;23.20;19.90;;;;;;;14.16;83.97;99232.82;225993;1277;22562;-74
2023/09/09 01:37:20;;;;;;;23.50;19.70;;;;;;;14.11;83.98;99231.58;225878;1280;211579;-74
2023/09/09 01:42:22;;;;;;;24.80;20.70;;;;;;;14.07;83.85;99228.64;225991;1277;22554;-75
2023/09/09 01:47:24;;;;;;;26.10;20.60;;;;;;;14.03;83.83;99232.90;226049;1277;22540;-75
2023/09/09 01:52:26;;;;;;;24.90;20.10;;;;;;;13.98;84.16;99235.13;225909;1278;22673;-75
2023/09/09 01:57:29;;;;;;;25.30;18.70;;;;;;;13.93;83.98;99236.69;225826;1280;22536;-75
2023/09/09 02:02:31;;;;;;;28.00;21.00;;;;;;;13.90;84.42;99237.56;225974;1278;22532;-74
2023/09/09 02:07:34;;;;;;;26.20;20.80;;;;;;;13.88;84.33;99242.61;225955;1278;22559;-75
2023/09/09 02:12:35;;;;;;;27.20;22.10;;;;;;;13.84;84.17;99244.55;225979;1276;22554;-75
2023/09/09 02:17:38;;;;;;;24.60;20.90;;;;;;;13.80;84.46;99246.87;225892;1278;22565;-75
2023/09/09 02:22:40;;;;;;;24.50;21.60;;;;;;;13.76;84.39;99247.75;225989;1280;22552;-73
2023/09/09 02:27:42;;;;;;;30.10;21.40;;;;;;;13.72;84.66;99245.40;225997;1280;22553;-74
2023/09/09 02:32:46;;;;;;;26.10;20.90;;;;;;;13.68;84.75;99249.90;225975;1280;22535;-75
2023/09/09 02:37:48;;;;;;;27.20;20.80;;;;;;;13.66;85.00;99251.80;225953;1280;22548;-75
2023/09/09 02:42:50;;;;;;;26.30;21.10;;;;;;;13.63;84.76;99247.89;225915;1279;22734;-74
2023/09/09 02:47:52;;;;;;;27.70;22.00;;;;;;;13.58;85.04;99242.18;225941;1280;22579;-75
2023/09/09 02:52:54;;;;;;;29.50;21.50;;;;;;;13.55;85.06;99236.23;225939;1280;22554;-75
2023/09/09 02:57:57;;;;;;;25.20;21.10;;;;;;;13.52;84.97;99233.88;226023;1272;23432;-75
2023/09/09 03:02:59;;;;;;;25.40;21.20;;;;;;;13.49;85.30;99240.83;226051;1280;24212;-75
2023/09/09 03:08:05;;;;;;;25.80;21.00;;;;;;;13.45;85.34;99243.20;225982;1272;22540;-74
2023/09/09 03:13:08;;;;;;;26.80;21.30;;;;;;;13.42;85.40;99246.41;226054;1278;22583;-75
2023/09/09 03:18:10;;;;;;;27.40;20.90;;;;;;;13.38;85.40;99246.87;226056;1278;22551;-73
2023/09/09 03:23:12;;;;;;;24.70;21.90;;;;;;;13.35;85.55;99252.98;225912;1278;22552;-74
2023/09/09 03:28:14;;;;;;;25.80;21.10;;;;;;;13.31;85.53;99246.18;225962;1274;22618;-75
2023/09/09 03:33:16;;;;;;;28.90;22.00;;;;;;;13.27;85.55;99245.49;225938;1278;22536;-75
2023/09/09 03:38:19;;;;;;;27.40;21.50;;;;;;;13.24;85.68;99244.45;226044;1278;22603;-74
2023/09/09 03:43:21;;;;;;;25.80;21.00;;;;;;;13.21;85.89;99244.34;225933;1275;22544;-74
2023/09/09 03:48:24;;;;;;;30.00;22.70;;;;;;;13.19;85.92;99249.23;225989;1276;22558;-74
2023/09/09 03:53:27;;;;;;;27.50;21.80;;;;;;;13.16;86.01;99249.22;226070;1274;22565;-74
2023/09/09 03:58:29;;;;;;;25.10;21.50;;;;;;;13.15;86.19;99246.11;225927;1275;22535;-76
2023/09/09 04:03:35;;;;;;;29.00;22.70;;;;;;;13.13;86.16;99247.08;226013;1276;22588;-74
2023/09/09 04:08:39;;;;;;;31.90;24.30;;;;;;;13.10;86.32;99250.43;225973;1280;25609;-75
2023/09/09 04:13:42;;;;;;;26.30;21.60;;;;;;;13.07;86.46;99248.48;225989;1272;25395;-75
2023/09/09 04:18:45;;;;;;;30.40;23.60;;;;;;;13.04;86.36;99252.73;226031;1277;22550;-75
2023/09/09 04:23:51;;;;;;;27.70;22.50;;;;;;;13.03;86.48;99256.11;226026;1276;22556;-75
2023/09/09 04:28:53;;;;;;;27.90;23.20;;;;;;;13.01;86.37;99253.68;225794;1272;22543;-75
2023/09/09 04:33:55;;;;;;;28.80;22.90;;;;;;;13.00;86.58;99259.10;225642;1268;22545;-75
2023/09/09 04:38:59;;;;;;;29.80;22.20;;;;;;;13.00;86.64;99257.38;225699;1278;22545;-75
2023/09/09 04:44:01;;;;;;;28.90;23.00;;;;;;;13.02;86.64;99257.65;225938;1278;22583;-74
2023/09/09 04:49:03;;;;;;;28.50;23.60;;;;;;;13.05;86.69;99262.73;226045;1278;22660;-73
2023/09/09 04:54:05;;;;;;;29.90;23.70;;;;;;;13.12;86.84;99266.13;225927;1278;22546;-74
2023/09/09 04:59:07;;;;;;;26.90;22.20;;;;;;;13.19;86.99;99269.85;225993;1276;22548;-75
2023/09/09 05:04:10;;;;;;;26.30;21.20;;;;;;;13.27;87.00;99267.78;226059;1276;23631;-74
2023/09/09 05:09:12;;;;;;;24.80;22.00;;;;;;;13.38;87.20;99274.84;225987;1280;22552;-74
2023/09/09 05:14:15;;;;;;;25.00;21.10;;;;;;;13.52;87.18;99277.02;226034;1277;25394;-74
2023/09/09 05:19:18;;;;;;;25.70;20.70;;;;;;;13.62;86.91;99278.15;226056;1278;22565;-74
2023/09/09 05:24:20;;;;;;;24.70;20.80;;;;;;;13.73;86.81;99279.31;226034;1276;22578;-75
2023/09/09 05:29:22;;;;;;;28.00;22.00;;;;;;;13.84;86.84;99278.75;225930;1280;22536;-75
2023/09/09 05:34:24;;;;;;;24.90;22.20;;;;;;;13.98;86.92;99280.87;226028;1276;25427;-74
2023/09/09 05:39:27;;;;;;;26.30;21.80;;;;;;;14.13;87.14;99285.35;226116;1276;25469;-74
2023/09/09 05:44:29;;;;;;;26.20;23.30;;;;;;;14.33;87.44;99286.17;226005;1278;22622;-75
2023/09/09 05:49:32;;;;;;;26.60;23.50;;;;;;;14.54;87.67;99283.27;226066;1262;22548;-74
2023/09/09 05:54:42;;;;;;;29.70;24.90;;;;;;;14.73;87.55;99283.55;225891;1278;22548;-75
2023/09/09 05:59:45;;;;;;;27.80;24.80;;;;;;;14.94;87.80;99284.19;226034;1276;22595;-76
2023/09/09 06:04:48;;;;;;;28.30;24.60;;;;;;;15.14;87.64;99285.63;225922;1280;24209;-75
2023/09/09 06:09:51;;;;;;;30.80;25.70;;;;;;;15.32;87.56;99287.48;226085;1280;22592;-75
2023/09/09 06:14:53;;;;;;;29.50;26.40;;;;;;;15.50;87.55;99284.42;226046;1274;22601;-75
2023/09/09 06:19:59;;;;;;;27.10;24.20;;;;;;;15.69;87.45;99284.29;226065;1278;22534;-75
2023/09/09 06:25:03;;;;;;;28.50;25.00;;;;;;;15.90;87.51;99285.06;226080;1272;22560;-74
2023/09/09 06:30:06;;;;;;;32.80;25.80;;;;;;;16.10;87.54;99290.23;226085;1279;22533;-75
2023/09/09 06:35:08;;;;;;;29.70;25.70;;;;;;;16.31;87.40;99292.23;225952;1273;25201;-74
2023/09/09 06:40:11;;;;;;;29.40;26.20;;;;;;;16.54;87.25;99295.83;226020;1268;24238;-75
2023/09/09 06:45:13;;;;;;;29.80;26.60;;;;;;;16.76;87.07;99300.20;225658;1272;22545;-74
2023/09/09 06:50:17;;;;;;;29.60;26.40;;;;;;;16.99;86.87;99309.81;225870;1259;25450;-74
2023/09/09 06:55:19;;;;;;;30.30;27.00;;;;;;;17.20;86.66;99308.96;225742;1278;22541;-74
2023/09/09 07:00:21;;;;;;;31.10;26.50;;;;;;;17.42;86.59;99312.35;225455;1272;23664;-75
2023/09/09 07:05:23;;;;;;;29.60;25.90;;;;;;;17.67;86.36;99319.34;225711;1273;22675;-76
2023/09/09 07:10:25;;;;;;;27.50;24.60;;;;;;;17.91;86.08;99313.70;225734;1276;22574;-76
2023/09/09 07:15:27;;;;;;;26.70;23.80;;;;;;;18.17;85.83;99317.64;225660;1279;23273;-75
2023/09/09 07:20:30;;;;;;;25.10;22.60;;;;;;;18.40;85.37;99323.14;225539;1256;22556;-76
2023/09/09 07:25:33;;;;;;;24.00;21.40;;;;;;;18.62;85.07;99324.92;225525;1258;22555;-76
2023/09/09 07:30:35;;;;;;;23.90;21.40;;;;;;;18.87;84.88;99333.65;225282;1262;22655;-76
2023/09/09 07:35:38;;;;;;;23.40;20.60;;;;;;;19.12;84.56;99337.23;225548;1267;24217;-75
2023/09/09 07:40:40;;;;;;;22.70;19.80;;;;;;;19.36;84.22;99333.52;225510;1268;22559;-77
2023/09/09 07:45:50;;;;;;;23.40;20.80;;;;;;;19.63;83.92;99330.38;225536;1258;22596;-77
2023/09/09 07:50:53;;;;;;;21.60;19.50;;;;;;;19.87;83.55;99329.70;225475;1275;22554;-77
2023/09/09 07:55:55;;;;;;;22.30;19.90;;;;;;;20.13;83.23;99324.98;225652;1268;22536;-76
2023/09/09 08:01:06;;;;;;;23.00;20.50;;;;;;;20.38;82.83;99325.63;225631;1281;22611;-76
2023/09/09 08:06:08;;;;;;;23.60;21.00;;;;;;;20.63;82.44;99321.84;225812;1258;22548;-77
2023/09/09 08:11:10;;;;;;;22.70;20.20;;;;;;;20.87;82.07;99316.30;225555;1275;22563;-77
2023/09/09 08:16:12;;;;;;;22.30;19.70;;;;;;;21.06;81.45;99320.84;225667;1259;22647;-76
2023/09/09 08:21:14;;;;;;;18.90;16.90;;;;;;;21.22;80.71;99320.12;225787;1277;22558;-76
2023/09/09 08:26:16;;;;;;;18.30;16.40;;;;;;;21.43;80.58;99321.75;225790;1276;22555;-75
2023/09/09 08:31:18;;;;;;;16.90;15.20;;;;;;;21.65;80.05;99321.98;225607;1262;22530;-78
2023/09/09 08:36:20;;;;;;;18.30;16.60;;;;;;;21.83;79.31;99328.42;225310;1277;22587;-76
2023/09/09 08:41:31;;;;;;;15.90;14.20;;;;;;;21.97;78.82;99329.17;225446;1268;22548;-75
2023/09/09 08:46:33;;;;;;;17.00;14.90;;;;;;;22.15;78.32;99328.34;225624;1260;22558;-76
2023/09/09 08:51:42;;;;;;;15.80;14.30;;;;;;;22.35;78.26;99324.99;225314;1259;22554;-75
2023/09/09 08:56:45;;;;;;;14.70;13.20;;;;;;;22.60;77.64;99329.16;225629;1278;22887;-75
2023/09/09 09:01:50;;;;;;;15.60;14.00;;;;;;;22.81;76.81;99331.23;225662;1268;22653;-75
2023/09/09 09:06:53;;;;;;;14.20;12.80;;;;;;;23.00;76.00;99327.98;225629;1277;22539;-74
2023/09/09 09:11:58;;;;;;;14.60;12.80;;;;;;;23.22;75.78;99327.38;225881;1279;22545;-74
2023/09/09 09:17:00;;;;;;;14.40;13.00;;;;;;;23.46;75.38;99324.17;225474;1275;22545;-75
2023/09/09 09:22:02;;;;;;;13.70;12.00;;;;;;;23.66;74.74;99315.92;225553;1256;22567;-75
2023/09/09 09:27:11;;;;;;;13.30;12.00;;;;;;;23.88;74.29;99314.86;225893;1278;22749;-75
2023/09/09 09:32:14;;;;;;;13.20;12.00;;;;;;;24.07;73.25;99311.30;225924;1276;22907;-74
2023/09/09 09:37:16;;;;;;;11.80;10.60;;;;;;;24.22;72.77;99304.58;225857;1278;22647;-76
2023/09/09 09:42:18;;;;;;;12.10;10.90;;;;;;;24.40;71.80;99301.04;225733;1268;22585;-76
2023/09/09 09:47:20;;;;;;;11.40;10.20;;;;;;;24.56;71.42;99294.22;225707;1277;22547;-75
2023/09/09 09:52:24;;;;;;;13.00;10.90;;;;;;;24.73;70.47;99289.13;225327;1268;22576;-76
2023/09/09 09:57:26;;;;;;;12.30;11.00;;;;;;;24.86;69.98;99286.54;225865;1268;22628;-75
2023/09/09 10:02:29;;;;;;;13.00;11.80;;;;;;;24.99;69.08;99283.66;225795;1256;22549;-75
2023/09/09 10:07:34;;;;;;;9.40;8.60;;;;;;;25.11;68.94;99286.48;225779;1276;22560;-76
2023/09/09 10:12:45;;;;;;;8.90;8.10;;;;;;;25.27;68.11;99283.77;225816;1276;26041;-77
2023/09/09 10:17:51;;;;;;;9.70;8.90;;;;;;;25.42;67.60;99277.42;225337;1278;24299;-75
2023/09/09 10:22:59;;;;;;;10.00;9.10;;;;;;;25.51;66.27;99283.48;225529;1272;22604;-77
2023/09/09 10:28:04;;;;;;;9.80;8.80;;;;;;;25.58;66.10;99278.05;225633;1278;22058;-76
2023/09/09 10:33:09;;;;;;;10.00;9.00;;;;;;;25.71;65.01;99276.54;225462;1275;25263;-75
2023/09/09 10:38:14;;;;;;;10.10;9.20;;;;;;;25.80;64.22;99271.92;225363;1280;22527;-76
2023/09/09 10:43:16;;;;;;;9.90;8.90;;;;;;;25.86;64.21;99273.19;225628;1262;22543;-75
2023/09/09 10:48:21;;;;;;;9.60;8.80;;;;;;;25.94;63.74;99269.81;225760;1278;22543;-76
2023/09/09 10:53:28;;;;;;;10.40;9.30;;;;;;;25.97;63.55;99268.60;225636;1277;22916;-78
2023/09/09 10:58:35;;;;;;;9.70;8.70;;;;;;;26.06;63.46;99264.13;225700;1275;22536;-76
2023/09/09 11:03:40;;;;;;;10.10;9.20;;;;;;;26.14;63.44;99256.62;225578;1267;22630;-75
2023/09/09 11:08:44;;;;;;;11.10;10.10;;;;;;;26.23;63.00;99244.34;225803;1277;22535;-76
2023/09/09 11:14:00;;;;;;;11.10;10.10;;;;;;;26.25;61.71;99247.90;226040;1278;25383;-76
2023/09/09 11:19:10;;;;;;;10.70;9.80;;;;;;;26.27;62.10;99251.02;225597;1280;22555;-76
2023/09/09 11:24:13;;;;;;;10.00;9.10;;;;;;;26.34;61.94;99246.30;225917;1256;22523;-76
2023/09/09 11:29:18;;;;;;;10.30;9.30;;;;;;;26.47;61.51;99247.52;226093;1276;22540;-77
2023/09/09 11:34:37;;;;;;;12.20;9.40;;;;;;;26.56;61.14;99241.98;226156;1280;22568;-76
2023/09/09 11:39:40;;;;;;;10.00;9.10;;;;;;;26.65;60.25;99235.70;225873;1280;22554;-76
2023/09/09 11:44:42;;;;;;;9.80;8.80;;;;;;;26.73;60.50;99237.59;226029;1280;22545;-76
2023/09/09 11:49:46;;;;;;;10.20;9.30;;;;;;;26.79;59.57;99231.04;226069;1276;22753;-76
2023/09/09 11:54:49;;;;;;;9.60;8.70;;;;;;;26.86;59.70;99228.01;225791;1276;22582;-75
2023/09/09 11:59:51;;;;;;;9.40;8.50;;;;;;;26.99;59.04;99219.30;226054;1278;22544;-76
2023/09/09 12:04:58;;;;;;;9.30;8.50;;;;;;;27.09;58.51;99216.55;226164;1280;22536;-76
2023/09/09 12:10:04;;;;;;;9.70;8.80;;;;;;;27.15;58.07;99214.28;226200;1278;22598;-76
2023/09/09 12:15:07;;;;;;;9.60;8.80;;;;;;;27.20;57.96;99211.61;226162;1278;22541;-76
2023/09/09 12:20:09;;;;;;;9.90;8.90;;;;;;;27.23;57.65;99211.38;226184;1279;22552;-75
2023/09/09 12:25:34;;;;;;;10.70;9.60;;;;;;;27.23;57.57;99209.69;226154;1276;22662;-76
2023/09/09 12:30:39;;;;;;;10.30;9.40;;;;;;;27.23;58.04;99211.27;226193;1278;22565;-76
2023/09/09 12:35:50;;;;;;;10.20;9.30;;;;;;;27.31;58.07;99200.92;225931;1278;22544;-76
2023/09/09 12:41:02;;;;;;;10.30;9.30;;;;;;;27.37;57.73;99197.70;226132;1280;22551;-77
2023/09/09 12:46:12;;;;;;;10.50;9.50;;;;;;;27.43;57.74;99198.63;225914;1280;23462;-76
2023/09/09 12:51:20;;;;;;;11.00;9.90;;;;;;;27.54;56.97;99192.87;225954;1278;22612;-75
2023/09/09 12:56:22;;;;;;;10.00;9.20;;;;;;;27.49;56.90;99190.23;226233;1278;25240;-76
2023/09/09 13:01:24;;;;;;;10.80;9.70;;;;;;;27.57;56.50;99194.42;226180;1278;22533;-75
2023/09/09 13:06:26;;;;;;;9.50;8.60;;;;;;;27.50;56.54;99194.64;226138;1280;22540;-78
2023/09/09 13:11:29;;;;;;;9.90;9.00;;;;;;;27.51;56.33;99192.35;226184;1278;24896;-77
2023/09/09 13:16:31;;;;;;;9.50;8.50;;;;;;;27.53;55.77;99190.27;225890;1277;22545;-76
2023/09/09 13:21:33;;;;;;;9.50;8.70;;;;;;;27.58;55.67;99187.79;226133;1278;22561;-75
2023/09/09 13:26:35;;;;;;;10.30;9.40;;;;;;;27.63;55.18;99185.88;226108;1280;22537;-76
2023/09/09 13:31:37;;;;;;;10.10;9.20;;;;;;;27.58;54.65;99184.60;226185;1278;22542;-76
2023/09/09 13:36:39;;;;;;;9.70;8.50;;;;;;;27.59;55.18;99180.73;225793;1256;241626;-75
2023/09/09 13:41:41;;;;;;;9.80;8.90;;;;;;;27.62;55.57;99182.91;226148;1278;22559;-76
2023/09/09 13:46:43;;;;;;;10.50;9.50;;;;;;;27.71;55.60;99175.64;225954;1278;24235;-76
2023/09/09 13:51:45;;;;;;;10.00;8.50;;;;;;;27.74;55.17;99176.21;226192;1276;22582;-76
2023/09/09 13:56:47;;;;;;;8.20;7.50;;;;;;;27.78;54.58;99177.93;226167;1278;22548;-77
2023/09/09 14:01:49;;;;;;;8.40;7.70;;;;;;;27.72;53.21;99179.65;226057;1280;22529;-76
2023/09/09 14:06:51;;;;;;;8.60;7.90;;;;;;;27.68;53.66;99177.78;226162;1266;22550;-76
2023/09/09 14:11:56;;;;;;;8.80;7.90;;;;;;;27.69;53.30;99172.89;226164;1280;22605;-76
2023/09/09 14:16:58;;;;;;;8.60;7.70;;;;;;;27.72;53.37;99167.64;226180;1280;25372;-76
2023/09/09 14:22:00;;;;;;;8.70;7.90;;;;;;;27.84;53.47;99161.73;226171;1278;22579;-76
2023/09/09 14:27:03;;;;;;;8.30;7.50;;;;;;;27.88;52.90;99155.23;226191;1276;22563;-76
2023/09/09 14:32:05;;;;;;;8.10;7.40;;;;;;;27.88;52.76;99151.15;226152;1279;22550;-75
2023/09/09 14:37:07;;;;;;;8.40;7.60;;;;;;;27.89;52.49;99150.77;226137;1280;22563;-76
2023/09/09 14:42:09;;;;;;;7.90;7.20;;;;;;;27.90;52.73;99149.05;226179;1276;22543;-76
2023/09/09 14:47:11;;;;;;;9.60;7.80;;;;;;;27.92;52.46;99143.46;226248;1280;22546;-76
2023/09/09 14:52:13;;;;;;;9.10;8.20;;;;;;;27.90;52.33;99140.35;225984;1280;22557;-76
2023/09/09 14:57:15;;;;;;;8.70;7.90;;;;;;;27.86;52.19;99134.66;225943;1280;22539;-76
2023/09/09 15:02:17;;;;;;;8.80;8.00;;;;;;;27.84;52.67;99131.36;226002;1280;22561;-76
2023/09/09 15:07:19;;;;;;;9.80;8.70;;;;;;;27.91;53.21;99131.36;226151;1279;22653;-76
2023/09/09 15:12:22;;;;;;;8.60;7.80;;;;;;;27.96;53.14;99130.16;226154;1280;22587;-76
2023/09/09 15:17:25;;;;;;;9.10;8.40;;;;;;;27.96;52.88;99126.74;226202;1278;22553;-76
2023/09/09 15:22:27;;;;;;;9.00;8.20;;;;;;;27.90;52.92;99122.73;226168;1276;24247;-76
2023/09/09 15:27:29;;;;;;;8.90;8.10;;;;;;;27.82;52.67;99114.77;226054;1278;22567;-77
2023/09/09 15:32:34;;;;;;;8.90;8.10;;;;;;;27.76;52.95;99111.44;226130;1277;22551;-76
2023/09/09 15:37:36;;;;;;;9.30;8.50;;;;;;;27.66;52.36;99113.79;225988;1280;22545;-76
2023/09/09 15:42:38;;;;;;;8.50;7.70;;;;;;;27.54;52.59;99114.46;226149;1280;22549;-76
2023/09/09 15:47:40;;;;;;;9.20;8.30;;;;;;;27.48;52.89;99112.02;226170;1278;22534;-76
2023/09/09 15:52:42;;;;;;;9.10;8.20;;;;;;;27.37;53.20;99112.70;226241;1278;22551;-76
2023/09/09 15:57:43;;;;;;;8.90;8.10;;;;;;;27.21;53.20;99112.79;225961;1278;22544;-75
2023/09/09 16:02:45;;;;;;;9.30;8.50;;;;;;;27.04;53.21;99115.02;225993;1278;22590;-74
2023/09/09 16:07:48;;;;;;;9.80;8.90;;;;;;;26.86;53.34;99112.14;226155;1276;22546;-75
2023/09/09 16:12:50;;;;;;;9.10;8.40;;;;;;;26.64;53.57;99117.95;226170;1280;22548;-76
2023/09/09 16:17:52;;;;;;;9.80;8.90;;;;;;;26.39;54.10;99115.21;225974;1278;24919;-76
2023/09/09 16:22:54;;;;;;;9.60;8.70;;;;;;;26.17;54.68;99113.52;226192;1280;22560;-77
2023/09/09 16:27:56;;;;;;;9.80;8.80;;;;;;;25.94;55.31;99109.11;226166;1280;22631;-76
2023/09/09 16:32:58;;;;;;;11.40;9.00;;;;;;;25.72;55.87;99114.76;226153;1280;22570;-75
2023/09/09 16:38:00;;;;;;;10.60;9.60;;;;;;;25.53;56.44;99113.25;225967;1280;22534;-74
2023/09/09 16:43:03;;;;;;;10.10;9.20;;;;;;;25.31;56.93;99115.01;226160;1280;22557;-76
2023/09/09 16:48:11;;;;;;;9.70;8.80;;;;;;;25.06;57.41;99115.73;226151;1280;22627;-76
2023/09/09 16:53:13;;;;;;;10.80;9.20;;;;;;;24.80;57.79;99115.75;226114;1274;22539;-76
2023/09/09 16:58:15;;;;;;;10.70;9.60;;;;;;;24.52;58.35;99121.55;226141;1279;22633;-76
2023/09/09 17:03:17;;;;;;;9.80;8.90;;;;;;;24.24;58.61;99123.58;226098;1277;22552;-75
2023/09/09 17:08:19;;;;;;;9.70;8.80;;;;;;;23.95;59.07;99123.14;226201;1280;22609;-75
2023/09/09 17:13:21;;;;;;;10.70;8.60;;;;;;;23.64;59.43;99118.94;226009;1280;22552;-75
2023/09/09 17:18:23;;;;;;;9.70;8.40;;;;;;;23.33;59.81;99121.64;226125;1280;22592;-75
2023/09/09 17:23:27;;;;;;;10.40;8.30;;;;;;;23.03;60.25;99129.30;226104;1277;22574;-75
2023/09/09 17:28:28;;;;;;;10.40;9.20;;;;;;;22.74;60.74;99132.54;226104;1276;22562;-75
2023/09/09 17:33:30;;;;;;;9.40;8.60;;;;;;;22.45;61.05;99139.09;225959;1280;22619;-75
2023/09/09 17:38:34;;;;;;;10.10;9.00;;;;;;;22.19;61.68;99142.73;225838;1280;22593;-74
2023/09/09 17:43:37;;;;;;;11.00;8.30;;;;;;;21.93;62.13;99144.30;226139;1277;25255;-74
2023/09/09 17:48:39;;;;;;;10.80;9.50;;;;;;;21.69;62.59;99148.02;226145;1273;22537;-74
2023/09/09 17:53:41;;;;;;;12.00;9.60;;;;;;;21.46;63.14;99151.23;226110;1280;22579;-76
2023/09/09 17:58:45;;;;;;;10.10;9.10;;;;;;;21.25;63.42;99153.20;226089;1257;22563;-76
2023/09/09 18:03:49;;;;;;;11.60;9.90;;;;;;;21.05;64.03;99153.33;226118;1276;22566;-75
2023/09/09 18:08:51;;;;;;;18.10;14.80;;;;;;;20.88;64.60;99154.56;226049;1280;22583;-75
2023/09/09 18:13:54;;;;;;;21.80;18.00;;;;;;;20.72;64.83;99159.05;226163;1279;22543;-75
2023/09/09 18:18:56;;;;;;;28.10;23.60;;;;;;;20.58;65.43;99163.88;226089;1278;23381;-75
2023/09/09 18:23:58;;;;;;;30.30;24.60;;;;;;;20.44;65.92;99169.42;225890;1279;22543;-75
2023/09/09 18:29:00;;;;;;;22.60;20.10;;;;;;;20.32;66.27;99176.21;226070;1279;22557;-75
2023/09/09 18:34:05;;;;;;;24.40;20.20;;;;;;;20.17;66.89;99174.18;225796;1280;22532;-75
2023/09/09 18:39:07;;;;;;;23.00;18.90;;;;;;;20.03;67.39;99176.27;226070;1274;22601;-75
2023/09/09 18:44:09;;;;;;;23.90;18.60;;;;;;;19.88;67.88;99177.38;226052;1277;22563;-76
2023/09/09 18:49:11;;;;;;;23.60;21.10;;;;;;;19.73;68.36;99184.95;225944;1279;22696;-77
2023/09/09 18:54:13;;;;;;;27.50;24.10;;;;;;;19.59;68.81;99188.52;225884;1280;22566;-76
2023/09/09 18:59:15;;;;;;;23.80;21.30;;;;;;;19.45;69.31;99188.85;225636;1280;22550;-76
2023/09/09 19:04:17;;;;;;;23.00;20.30;;;;;;;19.33;69.73;99198.39;225617;1273;24957;-76
2023/09/09 19:09:19;;;;;;;24.80;18.90;;;;;;;19.22;70.23;99203.17;225925;1279;22590;-76
2023/09/09 19:14:21;;;;;;;19.50;16.70;;;;;;;19.11;70.75;99205.02;226052;1277;22556;-75
2023/09/09 19:19:23;;;;;;;21.30;17.30;;;;;;;19.04;71.19;99203.89;226034;1273;25261;-75
2023/09/09 19:24:25;;;;;;;20.20;18.00;;;;;;;18.94;71.48;99205.05;225873;1278;22591;-75
2023/09/09 19:29:27;;;;;;;18.70;16.80;;;;;;;18.83;71.68;99208.36;226078;1272;22552;-77
2023/09/09 19:34:29;;;;;;;19.30;16.50;;;;;;;18.70;72.09;99204.88;225954;1276;22574;-76
2023/09/09 19:39:33;;;;;;;18.00;16.00;;;;;;;18.56;72.59;99202.02;225876;1279;22664;-77
2023/09/09 19:44:35;;;;;;;18.90;16.90;;;;;;;18.44;72.91;99203.50;226021;1280;22567;-77
2023/09/09 19:49:37;;;;;;;18.10;16.30;;;;;;;18.33;73.50;99206.05;226032;1280;22544;-74
2023/09/09 19:54:39;;;;;;;21.50;19.30;;;;;;;18.22;74.09;99202.88;226016;1276;22619;-75
2023/09/09 19:59:41;;;;;;;22.80;18.20;;;;;;;18.13;74.36;99200.10;225986;1280;22564;-76
2023/09/09 20:04:43;;;;;;;19.80;17.90;;;;;;;18.05;74.61;99194.17;226086;1273;22526;-76
2023/09/09 20:09:48;;;;;;;20.40;17.90;;;;;;;17.97;75.08;99193.36;226084;1276;22547;-75
2023/09/09 20:14:50;;;;;;;21.00;18.80;;;;;;;17.89;75.47;99191.77;226015;1276;22547;-76
2023/09/09 20:19:52;;;;;;;20.50;18.30;;;;;;;17.83;75.91;99193.02;226010;1278;22563;-77
2023/09/09 20:24:54;;;;;;;23.80;20.10;;;;;;;17.75;76.08;99197.51;226047;1276;23875;-75
2023/09/09 20:29:56;;;;;;;20.60;18.50;;;;;;;17.68;76.29;99197.67;226038;1280;22557;-75
2023/09/09 20:34:58;;;;;;;20.70;18.60;;;;;;;17.61;76.62;99194.69;226047;1277;22578;-76
2023/09/09 20:40:22;;;;;;;19.20;17.30;;;;;;;17.55;77.08;99191.40;226052;1280;24300;-76
2023/09/09 20:45:26;;;;;;;20.10;18.00;;;;;;;17.52;77.17;99187.83;225983;1280;23044;-75
2023/09/09 20:50:32;;;;;;;18.70;16.20;;;;;;;17.46;77.39;99184.16;226057;1280;22540;-76
2023/09/09 20:55:38;;;;;;;19.70;17.80;;;;;;;17.39;77.60;99182.25;225898;1280;22629;-75
2023/09/09 21:00:39;;;;;;;18.80;16.80;;;;;;;17.33;77.85;99181.60;225996;1276;22546;-75
2023/09/09 21:05:41;;;;;;;20.90;18.80;;;;;;;17.26;78.16;99178.61;225788;1280;22541;-75
2023/09/09 21:10:51;;;;;;;20.70;17.30;;;;;;;17.20;78.13;99180.61;225793;1280;22572;-75
2023/09/09 21:15:54;;;;;;;20.20;18.10;;;;;;;17.15;78.52;99174.38;226038;1278;22545;-75
2023/09/09 21:20:56;;;;;;;19.40;17.30;;;;;;;17.12;78.61;99172.89;226013;1277;22541;-75
2023/09/09 21:25:58;;;;;;;20.20;18.10;;;;;;;17.06;78.80;99171.18;226037;1276;23039;-75
2023/09/09 21:31:03;;;;;;;18.90;16.90;;;;;;;17.00;78.84;99174.61;226012;1280;22558;-75
2023/09/09 21:36:05;;;;;;;19.30;17.30;;;;;;;16.96;79.22;99176.11;225992;1279;22896;-74
2023/09/09 21:41:07;;;;;;;20.30;18.10;;;;;;;16.93;79.34;99173.47;225983;1274;25274;-76
2023/09/09 21:46:10;;;;;;;20.80;18.70;;;;;;;16.87;79.73;99169.55;225994;1276;22587;-77
2023/09/09 21:51:12;;;;;;;21.20;19.10;;;;;;;16.80;79.69;99167.27;226038;1278;25321;-75
2023/09/09 21:56:14;;;;;;;20.50;18.30;;;;;;;16.75;80.12;99170.31;225908;1262;22545;-76
2023/09/09 22:01:16;;;;;;;21.10;19.00;;;;;;;16.71;80.42;99170.42;225888;1280;24262;-75
2023/09/09 22:06:18;;;;;;;21.90;19.40;;;;;;;16.69;80.77;99175.28;225727;1279;22608;-75
2023/09/09 22:11:20;;;;;;;22.70;20.00;;;;;;;16.67;80.64;99170.65;225971;1276;22605;-75
2023/09/09 22:16:22;;;;;;;22.30;20.00;;;;;;;16.60;80.77;99168.72;225957;1280;23163;-76
2023/09/09 22:21:25;;;;;;;23.90;21.50;;;;;;;16.53;80.94;99171.27;225999;1276;22564;-77
2023/09/09 22:26:29;;;;;;;25.80;22.70;;;;;;;16.49;81.14;99170.09;225975;1276;22571;-76
2023/09/09 22:31:31;;;;;;;26.50;23.60;;;;;;;16.45;81.17;99164.59;226040;1273;22551;-76
2023/09/09 22:36:33;;;;;;;27.30;23.90;;;;;;;16.38;81.28;99158.20;225979;1277;22574;-74
2023/09/09 22:41:35;;;;;;;26.30;23.30;;;;;;;16.31;81.32;99161.78;225983;1273;22555;-75
2023/09/09 22:46:38;;;;;;;27.20;24.50;;;;;;;16.24;81.52;99160.80;225984;1278;22561;-75
2023/09/09 22:51:40;;;;;;;28.80;25.80;;;;;;;16.17;81.62;99163.27;225882;1278;22550;-75
2023/09/09 22:56:42;;;;;;;27.80;24.90;;;;;;;16.11;82.17;99165.52;225901;1273;22536;-76
2023/09/09 23:01:44;;;;;;;30.20;26.90;;;;;;;16.06;82.01;99167.67;225923;1277;22532;-76
2023/09/09 23:06:47;;;;;;;29.90;26.70;;;;;;;16.01;82.10;99166.23;226038;1276;22548;-76